createdAt,value
2019-03-25T00:01:20.282Z,50.12
2019-03-25T00:03:48.648Z,50.23
2019-03-25T00:06:17.180Z,50.16
2019-03-25T00:08:45.542Z,50.15
2019-03-25T00:11:13.920Z,50.24
2019-03-25T00:13:42.297Z,50.18
2019-03-25T00:16:10.736Z,50.04
2019-03-25T00:18:39.096Z,50.15
2019-03-25T00:21:07.469Z,50.17
2019-03-25T00:23:35.837Z,50.23
2019-03-25T00:26:04.215Z,50.19
2019-03-25T00:28:32.577Z,50.12
2019-03-25T00:31:01.024Z,50.17
2019-03-25T00:33:29.389Z,50.13
2019-03-25T00:35:57.760Z,50.26
2019-03-25T00:38:26.127Z,50.28
2019-03-25T00:40:54.505Z,50.41
2019-03-25T00:43:23.357Z,50.25
2019-03-25T00:45:51.721Z,50.16
2019-03-25T00:48:20.093Z,50.27
2019-03-25T00:50:48.528Z,50.36
2019-03-25T00:53:16.902Z,50.27
2019-03-25T00:55:45.265Z,50.20
2019-03-25T00:58:13.655Z,50.27
2019-03-25T01:00:42.200Z,50.18
2019-03-25T01:03:10.640Z,50.32
2019-03-25T01:05:39.076Z,50.40
2019-03-25T01:08:07.449Z,50.28
2019-03-25T01:10:38.907Z,50.34
2019-03-25T01:13:07.291Z,50.38
2019-03-25T01:15:35.721Z,50.26
2019-03-25T01:18:04.176Z,50.23
2019-03-25T01:20:32.542Z,50.36
2019-03-25T01:23:00.929Z,50.34
2019-03-25T01:25:29.298Z,50.34
2019-03-25T01:27:57.684Z,50.37
2019-03-25T01:30:26.060Z,50.41
2019-03-25T01:32:54.439Z,50.28
2019-03-25T01:35:23.830Z,50.52
2019-03-25T01:37:52.200Z,50.37
2019-03-25T01:40:20.565Z,50.27
2019-03-25T01:42:48.956Z,50.38
2019-03-25T01:45:17.313Z,50.34
2019-03-25T01:47:45.744Z,50.40
2019-03-25T01:50:14.137Z,50.44
2019-03-25T01:52:42.516Z,50.51
2019-03-25T01:55:13.638Z,50.42
2019-03-25T01:57:41.212Z,50.36
2019-03-25T02:00:09.911Z,50.61
2019-03-25T02:02:38.277Z,50.40
2019-03-25T02:05:07.131Z,50.46
2019-03-25T02:07:35.494Z,50.43
2019-03-25T02:10:07.984Z,50.41
2019-03-25T02:12:36.365Z,50.43
2019-03-25T02:15:05.605Z,50.39
2019-03-25T02:17:33.981Z,50.30
2019-03-25T02:20:02.438Z,50.50
2019-03-25T02:22:30.907Z,50.48
2019-03-25T02:24:59.285Z,50.39
2019-03-25T02:27:27.662Z,50.52
2019-03-25T02:29:56.055Z,50.54
2019-03-25T02:32:24.683Z,50.57
2019-03-25T02:34:53.065Z,50.55
2019-03-25T02:37:21.462Z,50.46
2019-03-25T02:39:49.843Z,50.46
2019-03-25T02:42:18.232Z,50.47
2019-03-25T02:44:46.621Z,50.37
2019-03-25T02:47:14.996Z,50.64
2019-03-25T02:49:43.381Z,50.50
2019-03-25T02:52:11.759Z,50.47
2019-03-25T02:54:40.144Z,50.55
2019-03-25T02:57:08.531Z,50.43
2019-03-25T02:59:36.932Z,50.53
2019-03-25T03:02:05.388Z,50.49
2019-03-25T03:04:33.788Z,50.49
2019-03-25T03:07:02.167Z,50.50
2019-03-25T03:09:30.570Z,50.47
2019-03-25T03:11:59.112Z,50.35
2019-03-25T03:14:27.503Z,50.52
2019-03-25T03:16:55.877Z,50.59
2019-03-25T03:19:24.841Z,50.28
2019-03-25T03:21:53.226Z,50.53
2019-03-25T03:24:21.622Z,50.58
2019-03-25T03:26:50.016Z,50.53
2019-03-25T03:29:18.403Z,50.51
2019-03-25T03:31:46.778Z,50.36
2019-03-25T03:34:15.153Z,50.51
2019-03-25T03:36:43.549Z,50.44
2019-03-25T03:39:11.934Z,50.52
2019-03-25T03:41:40.335Z,50.55
2019-03-25T03:44:08.698Z,50.50
2019-03-25T03:46:37.101Z,50.44
2019-03-25T03:49:05.471Z,50.48
2019-03-25T03:51:34.345Z,50.79
2019-03-25T03:54:02.706Z,50.53
2019-03-25T03:56:31.774Z,50.59
2019-03-25T03:59:02.673Z,50.50
2019-03-25T04:01:31.126Z,50.32
2019-03-25T04:03:59.493Z,50.46
2019-03-25T04:06:27.905Z,50.56
2019-03-25T04:08:56.275Z,50.44
2019-03-25T04:11:25.264Z,50.34
2019-03-25T04:13:53.637Z,50.40
2019-03-25T04:16:22.032Z,50.31
2019-03-25T04:18:50.416Z,50.43
2019-03-25T04:21:18.803Z,50.33
2019-03-25T04:23:47.193Z,50.30
2019-03-25T04:26:27.721Z,50.31
2019-03-25T04:28:45.690Z,50.39
2019-03-25T04:31:14.094Z,50.21
2019-03-25T04:33:42.480Z,50.31
2019-03-25T04:36:10.874Z,50.35
2019-03-25T04:38:39.267Z,50.06
2019-03-25T04:41:07.665Z,50.21
2019-03-25T04:43:36.058Z,50.23
2019-03-25T04:46:04.417Z,50.37
2019-03-25T04:48:32.814Z,50.36
2019-03-25T04:51:01.192Z,50.27
2019-03-25T04:53:29.578Z,50.31
2019-03-25T04:55:57.951Z,50.22
2019-03-25T04:58:26.336Z,50.68
2019-03-25T05:00:55.958Z,50.63
2019-03-25T05:03:24.422Z,50.46
2019-03-25T05:05:52.800Z,50.16
2019-03-25T05:08:21.186Z,49.50
2019-03-25T05:10:49.576Z,49.07
2019-03-25T05:13:17.956Z,48.77
2019-03-25T05:15:46.343Z,48.86
2019-03-25T05:18:14.725Z,48.93
2019-03-25T05:20:43.109Z,48.97
2019-03-25T05:23:11.567Z,48.99
2019-03-25T05:25:39.949Z,48.92
2019-03-25T05:28:08.574Z,49.12
2019-03-25T05:30:37.008Z,49.02
2019-03-25T05:33:05.409Z,49.11
2019-03-25T05:35:33.796Z,49.20
2019-03-25T05:38:02.207Z,49.16
2019-03-25T05:40:30.581Z,49.21
2019-03-25T05:42:58.964Z,49.13
2019-03-25T05:45:27.333Z,49.18
2019-03-25T05:47:56.198Z,49.14
2019-03-25T05:50:24.575Z,49.26
2019-03-25T05:52:52.977Z,49.36
2019-03-25T05:55:21.351Z,49.38
2019-03-25T05:57:49.731Z,49.34
2019-03-25T06:00:19.843Z,49.35
2019-03-25T06:02:48.221Z,49.31
2019-03-25T06:05:16.609Z,49.38
2019-03-25T06:07:45.002Z,49.40
2019-03-25T06:10:13.528Z,49.52
2019-03-25T06:12:42.570Z,49.69
2019-03-25T06:15:11.326Z,49.69
2019-03-25T06:17:39.698Z,50.01
2019-03-25T06:20:08.430Z,50.17
2019-03-25T06:22:36.815Z,50.20
2019-03-25T06:25:07.141Z,50.11
2019-03-25T06:27:35.513Z,50.09
2019-03-25T06:30:07.095Z,50.28
2019-03-25T06:32:35.470Z,50.34
2019-03-25T06:35:05.108Z,50.34
2019-03-25T06:37:33.472Z,50.34
2019-03-25T06:40:01.859Z,50.26
2019-03-25T06:42:30.268Z,50.16
2019-03-25T06:44:58.653Z,50.02
2019-03-25T06:47:27.024Z,49.98
2019-03-25T06:49:55.467Z,49.94
2019-03-25T06:52:23.877Z,50.00
2019-03-25T06:54:52.278Z,49.96
2019-03-25T06:57:25.396Z,50.03
2019-03-25T06:59:50.784Z,50.00
2019-03-25T07:02:19.162Z,49.97
2019-03-25T07:04:47.556Z,49.87
2019-03-25T07:07:15.932Z,49.62
2019-03-25T07:09:44.347Z,49.57
2019-03-25T07:12:12.889Z,49.67
2019-03-25T07:14:41.523Z,49.79
2019-03-25T07:17:09.904Z,49.62
2019-03-25T07:19:38.292Z,49.56
2019-03-25T07:22:06.677Z,49.61
2019-03-25T07:24:35.204Z,49.60
2019-03-25T07:27:03.581Z,49.79
2019-03-25T07:29:31.972Z,50.20
2019-03-25T07:32:00.359Z,50.26
2019-03-25T07:34:28.976Z,50.45
2019-03-25T07:36:57.348Z,50.52
2019-03-25T07:39:25.759Z,50.34
2019-03-25T07:41:54.138Z,50.61
2019-03-25T07:44:22.525Z,50.98
2019-03-25T07:46:50.924Z,51.69
2019-03-25T07:49:19.311Z,51.98
2019-03-25T07:51:47.711Z,52.19
2019-03-25T07:54:16.106Z,52.56
2019-03-25T07:56:44.511Z,52.72
2019-03-25T07:59:12.885Z,52.85
2019-03-25T08:01:41.288Z,52.85
2019-03-25T08:04:09.687Z,53.47
2019-03-25T08:06:38.119Z,53.34
2019-03-25T08:09:07.399Z,53.14
2019-03-25T08:11:35.758Z,53.12
2019-03-25T08:14:04.246Z,52.68
2019-03-25T08:16:32.606Z,52.88
2019-03-25T08:19:01.111Z,52.95
2019-03-25T08:21:29.671Z,52.92
2019-03-25T08:23:58.127Z,52.83
2019-03-25T08:26:27.518Z,52.65
2019-03-25T08:28:55.890Z,52.48
2019-03-25T08:31:24.287Z,52.24
2019-03-25T08:33:52.663Z,51.98
2019-03-25T08:36:21.091Z,51.60
2019-03-25T08:38:49.477Z,51.39
2019-03-25T08:41:17.883Z,51.34
2019-03-25T08:43:46.271Z,51.20
2019-03-25T08:46:14.752Z,51.14
2019-03-25T08:48:43.210Z,50.99
2019-03-25T08:51:11.586Z,50.72
2019-03-25T08:53:39.974Z,50.72
2019-03-25T08:56:08.422Z,50.80
2019-03-25T08:58:36.805Z,50.84
2019-03-25T09:01:05.185Z,50.87
2019-03-25T09:03:33.585Z,50.90
2019-03-25T09:06:01.966Z,50.91
2019-03-25T09:08:30.354Z,50.86
2019-03-25T09:10:58.730Z,50.81
2019-03-25T09:13:27.909Z,50.82
2019-03-25T09:15:56.509Z,50.76
2019-03-25T09:18:24.873Z,50.84
2019-03-25T09:20:53.250Z,50.90
2019-03-25T09:23:21.810Z,51.11
2019-03-25T09:25:50.267Z,51.08
2019-03-25T09:28:24.143Z,51.14
2019-03-25T09:30:54.807Z,51.31
2019-03-25T09:33:23.528Z,51.08
2019-03-25T09:35:52.020Z,51.02
2019-03-25T09:38:20.441Z,51.39
2019-03-25T09:40:48.832Z,51.35
2019-03-25T09:43:17.297Z,51.35
2019-03-25T09:45:45.760Z,51.17
2019-03-25T09:48:14.163Z,50.92
2019-03-25T09:50:42.542Z,50.12
2019-03-25T09:53:10.940Z,49.86
2019-03-25T09:55:39.321Z,49.84
2019-03-25T09:58:07.710Z,49.73
2019-03-25T10:00:36.118Z,49.26
2019-03-25T10:03:04.574Z,48.92
2019-03-25T10:05:32.962Z,48.63
2019-03-25T10:08:01.366Z,48.35
2019-03-25T10:10:29.749Z,48.50
2019-03-25T10:12:58.466Z,48.96
2019-03-25T10:15:26.865Z,49.46
2019-03-25T10:17:55.251Z,49.56
2019-03-25T10:20:23.637Z,49.76
2019-03-25T10:22:52.033Z,49.80
2019-03-25T10:25:20.432Z,49.85
2019-03-25T10:27:48.809Z,49.91
2019-03-25T10:30:17.730Z,49.95
2019-03-25T10:32:46.120Z,50.00
2019-03-25T10:35:14.848Z,49.87
2019-03-25T10:37:43.310Z,49.80
2019-03-25T10:40:11.849Z,49.66
2019-03-25T10:42:40.239Z,49.64
2019-03-25T10:45:09.658Z,46.67
2019-03-25T10:47:38.044Z,42.66
2019-03-25T10:50:07.678Z,39.68
2019-03-25T10:52:36.061Z,37.38
2019-03-25T10:55:07.727Z,35.65
2019-03-25T10:57:35.778Z,33.96
2019-03-25T11:00:09.857Z,32.57
2019-03-25T11:02:38.313Z,34.88
2019-03-25T11:05:08.233Z,38.88
2019-03-25T11:07:36.668Z,41.49
2019-03-25T11:10:08.739Z,43.26
2019-03-25T11:12:37.122Z,44.12
2019-03-25T11:15:09.273Z,39.51
2019-03-25T11:17:37.926Z,33.37
2019-03-25T11:20:09.009Z,30.27
2019-03-25T11:22:37.458Z,28.78
2019-03-25T11:25:06.607Z,27.84
2019-03-25T11:27:34.974Z,27.39
2019-03-25T11:30:05.709Z,28.62
2019-03-25T11:32:34.191Z,29.22
2019-03-25T11:35:02.595Z,27.53
2019-03-25T11:37:30.966Z,26.67
2019-03-25T11:39:59.408Z,29.53
2019-03-25T11:42:27.787Z,33.92
2019-03-25T11:44:56.173Z,37.31
2019-03-25T11:47:24.567Z,39.58
2019-03-25T11:49:53.061Z,40.92
2019-03-25T11:52:21.410Z,41.93
2019-03-25T11:54:49.806Z,41.87
2019-03-25T11:57:18.208Z,39.67
2019-03-25T11:59:46.575Z,34.64
2019-03-25T12:02:17.826Z,31.46
2019-03-25T12:04:45.078Z,30.07
2019-03-25T12:07:13.473Z,29.46
2019-03-25T12:09:41.850Z,29.38
2019-03-25T12:12:10.241Z,29.39
2019-03-25T12:14:38.611Z,29.76
2019-03-25T12:17:06.997Z,32.50
2019-03-25T12:19:35.377Z,35.28
2019-03-25T12:22:03.759Z,37.71
2019-03-25T12:24:32.147Z,36.61
2019-03-25T12:27:00.545Z,35.57
2019-03-25T12:29:30.619Z,35.19
2019-03-25T12:31:59.547Z,36.13
2019-03-25T12:34:28.027Z,35.04
2019-03-25T12:36:56.385Z,33.57
2019-03-25T12:39:24.769Z,33.43
2019-03-25T12:41:53.276Z,34.67
2019-03-25T12:44:21.665Z,36.61
2019-03-25T12:46:50.043Z,37.70
2019-03-25T12:49:18.421Z,38.43
2019-03-25T12:51:48.432Z,38.64
2019-03-25T12:54:16.964Z,39.09
2019-03-25T12:56:45.356Z,39.56
2019-03-25T12:59:13.746Z,39.73
2019-03-25T13:01:52.543Z,40.07
2019-03-25T13:04:12.216Z,40.95
2019-03-25T13:06:40.618Z,41.83
2019-03-25T13:09:09.076Z,42.30
2019-03-25T13:11:37.511Z,42.84
2019-03-25T13:14:06.927Z,43.14
2019-03-25T13:16:35.342Z,43.19
2019-03-25T13:19:03.713Z,43.04
2019-03-25T13:21:32.097Z,42.88
2019-03-25T13:24:00.467Z,42.97
2019-03-25T13:26:28.853Z,43.15
2019-03-25T13:29:01.899Z,43.22
2019-03-25T13:31:27.351Z,43.40
2019-03-25T13:33:55.738Z,43.53
2019-03-25T13:36:24.127Z,43.45
2019-03-25T13:38:52.507Z,43.49
2019-03-25T13:41:20.899Z,43.50
2019-03-25T13:43:49.284Z,43.53
2019-03-25T13:46:17.674Z,43.45
2019-03-25T13:48:46.055Z,43.63
2019-03-25T13:51:14.433Z,43.69
2019-03-25T13:53:42.830Z,43.84
2019-03-25T13:56:11.219Z,44.12
2019-03-25T13:58:39.613Z,44.33
2019-03-25T14:01:08.002Z,44.32
2019-03-25T14:03:36.389Z,44.14
2019-03-25T14:06:05.046Z,43.97
2019-03-25T14:08:33.430Z,44.02
2019-03-25T14:11:01.816Z,44.40
2019-03-25T14:13:30.405Z,44.49
2019-03-25T14:15:58.828Z,44.70
2019-03-25T14:18:27.267Z,44.74
2019-03-25T14:20:55.635Z,44.88
2019-03-25T14:23:24.091Z,45.07
2019-03-25T14:25:52.482Z,45.21
2019-03-25T14:28:20.852Z,45.30
2019-03-25T14:30:49.247Z,45.53
2019-03-25T14:33:17.617Z,45.12
2019-03-25T14:35:46.014Z,45.12
2019-03-25T14:38:14.388Z,45.03
2019-03-25T14:40:42.779Z,45.11
2019-03-25T14:43:11.158Z,45.18
2019-03-25T14:45:39.549Z,45.15
2019-03-25T14:48:07.970Z,45.40
2019-03-25T14:50:36.316Z,45.60
2019-03-25T14:53:04.689Z,45.57
2019-03-25T14:55:33.101Z,45.60
2019-03-25T14:58:01.477Z,45.76
2019-03-25T15:00:30.775Z,45.84
2019-03-25T15:02:59.144Z,46.08
2019-03-25T15:05:27.529Z,46.14
2019-03-25T15:07:55.902Z,46.30
2019-03-25T15:10:24.303Z,46.30
2019-03-25T15:12:52.693Z,46.28
2019-03-25T15:15:21.080Z,46.36
2019-03-25T15:17:49.473Z,46.55
2019-03-25T15:20:17.931Z,46.69
2019-03-25T15:22:46.316Z,46.72
2019-03-25T15:25:14.782Z,46.74
2019-03-25T15:27:43.239Z,46.83
2019-03-25T15:30:12.289Z,46.39
2019-03-25T15:32:40.671Z,46.25
2019-03-25T15:35:09.192Z,46.47
2019-03-25T15:37:37.588Z,46.47
2019-03-25T15:40:10.495Z,46.61
2019-03-25T15:42:38.868Z,46.77
2019-03-25T15:45:09.386Z,46.77
2019-03-25T15:47:38.162Z,46.86
2019-03-25T15:50:11.362Z,46.96
2019-03-25T15:52:39.820Z,46.88
2019-03-25T15:55:08.435Z,47.02
2019-03-25T15:57:39.454Z,46.99
2019-03-25T16:00:13.516Z,47.12
2019-03-25T16:02:41.969Z,47.32
2019-03-25T16:05:10.576Z,47.35
2019-03-25T16:07:39.957Z,47.42
2019-03-25T16:10:09.178Z,47.53
2019-03-25T16:12:37.579Z,47.65
2019-03-25T16:15:09.632Z,47.66
2019-03-25T16:17:38.025Z,47.45
2019-03-25T16:20:08.014Z,47.32
2019-03-25T16:22:36.407Z,47.32
2019-03-25T16:25:08.103Z,47.62
2019-03-25T16:27:36.484Z,47.91
2019-03-25T16:30:08.718Z,47.91
2019-03-25T16:32:37.113Z,47.95
2019-03-25T16:35:06.769Z,48.08
2019-03-25T16:37:35.166Z,48.08
2019-03-25T16:40:04.232Z,48.12
2019-03-25T16:42:32.634Z,48.14
2019-03-25T16:45:01.603Z,48.20
2019-03-25T16:47:29.991Z,48.40
2019-03-25T16:49:58.366Z,48.74
2019-03-25T16:52:26.779Z,48.61
2019-03-25T16:54:55.207Z,48.36
2019-03-25T16:57:23.593Z,48.20
2019-03-25T16:59:51.983Z,48.36
2019-03-25T17:02:20.412Z,48.44
2019-03-25T17:04:48.811Z,48.48
2019-03-25T17:07:17.206Z,48.57
2019-03-25T17:09:45.604Z,49.13
2019-03-25T17:12:14.024Z,49.48
2019-03-25T17:14:42.448Z,49.50
2019-03-25T17:17:10.860Z,49.89
2019-03-25T17:19:39.284Z,50.08
2019-03-25T17:22:07.704Z,50.00
2019-03-25T17:24:36.106Z,50.94
2019-03-25T17:27:04.592Z,50.38
2019-03-25T17:29:33.010Z,50.22
2019-03-25T17:32:01.999Z,50.16
2019-03-25T17:34:30.407Z,48.79
2019-03-25T17:36:58.832Z,48.91
2019-03-25T17:39:27.245Z,48.98
2019-03-25T17:41:55.750Z,48.79
2019-03-25T17:44:24.230Z,48.66
2019-03-25T17:46:52.630Z,48.79
2019-03-25T17:49:21.071Z,48.82
2019-03-25T17:51:49.502Z,48.83
2019-03-25T17:54:17.940Z,48.69
2019-03-25T17:56:46.355Z,49.54
2019-03-25T17:59:14.804Z,49.89
2019-03-25T18:01:43.229Z,50.20
2019-03-25T18:04:11.773Z,50.20
2019-03-25T18:06:40.185Z,50.18
2019-03-25T18:09:08.663Z,50.23
2019-03-25T18:11:37.069Z,49.71
2019-03-25T18:14:05.451Z,49.39
2019-03-25T18:16:33.843Z,49.63
2019-03-25T18:19:02.371Z,49.68
2019-03-25T18:21:30.769Z,49.55
2019-03-25T18:23:59.157Z,49.72
2019-03-25T18:26:27.542Z,49.64
2019-03-25T18:28:55.932Z,49.60
2019-03-25T18:31:24.387Z,49.76
2019-03-25T18:33:52.811Z,49.82
2019-03-25T18:36:21.175Z,49.81
2019-03-25T18:38:49.575Z,49.75
2019-03-25T18:41:18.023Z,49.72
2019-03-25T18:43:46.427Z,49.75
2019-03-25T18:46:15.090Z,49.65
2019-03-25T18:48:43.536Z,49.56
2019-03-25T18:51:11.932Z,49.59
2019-03-25T18:53:40.370Z,49.58
2019-03-25T18:56:08.853Z,49.56
2019-03-25T18:58:37.676Z,49.54
2019-03-25T19:01:06.076Z,49.60
2019-03-25T19:03:34.694Z,49.94
2019-03-25T19:06:03.154Z,49.78
2019-03-25T19:08:31.725Z,49.52
2019-03-25T19:11:00.084Z,48.87
2019-03-25T19:13:28.462Z,48.86
2019-03-25T19:15:56.860Z,48.80
2019-03-25T19:18:25.223Z,48.94
2019-03-25T19:20:53.633Z,48.98
2019-03-25T19:23:22.008Z,49.43
2019-03-25T19:25:50.385Z,49.54
2019-03-25T19:28:18.805Z,49.88
2019-03-25T19:30:47.164Z,50.20
2019-03-25T19:33:15.559Z,49.89
2019-03-25T19:35:43.944Z,49.72
2019-03-25T19:38:12.372Z,49.97
2019-03-25T19:40:40.725Z,49.88
2019-03-25T19:43:09.155Z,49.83
2019-03-25T19:45:37.511Z,49.83
2019-03-25T19:48:05.899Z,50.14
2019-03-25T19:50:34.339Z,50.24
2019-03-25T19:53:03.724Z,50.19
2019-03-25T19:55:32.105Z,50.31
2019-03-25T19:58:00.520Z,50.26
2019-03-25T20:00:39.635Z,50.43
2019-03-25T20:03:08.005Z,50.23
2019-03-25T20:05:36.547Z,50.32
2019-03-25T20:08:05.273Z,50.40
2019-03-25T20:10:35.256Z,50.48
2019-03-25T20:13:03.892Z,50.66
2019-03-25T20:15:44.908Z,50.59
2019-03-25T20:18:02.419Z,50.47
2019-03-25T20:20:30.818Z,50.59
2019-03-25T20:22:59.201Z,50.90
2019-03-25T20:25:27.589Z,50.70
2019-03-25T20:27:55.982Z,50.52
2019-03-25T20:30:24.799Z,50.60
2019-03-25T20:32:53.217Z,50.60
2019-03-25T20:35:21.593Z,50.76
2019-03-25T20:37:49.999Z,50.83
2019-03-25T20:40:18.381Z,50.82
2019-03-25T20:42:46.795Z,50.91
2019-03-25T20:45:18.223Z,50.99
2019-03-25T20:47:45.419Z,51.02
2019-03-25T20:50:13.817Z,51.00
2019-03-25T20:52:42.226Z,51.01
2019-03-25T20:55:10.657Z,50.91
2019-03-25T20:57:40.561Z,50.96
2019-03-25T21:00:10.237Z,51.07
2019-03-25T21:02:44.788Z,50.90
2019-03-25T21:05:08.898Z,50.87
2019-03-25T21:07:37.361Z,51.08
2019-03-25T21:10:08.564Z,51.09
2019-03-25T21:12:38.577Z,51.01
2019-03-25T21:15:08.807Z,51.18
2019-03-25T21:17:37.169Z,51.09
2019-03-25T21:20:07.683Z,51.09
2019-03-25T21:22:36.192Z,50.96
2019-03-25T21:25:06.398Z,51.01
2019-03-25T21:27:34.759Z,51.10
2019-03-25T21:30:05.483Z,51.27
2019-03-25T21:32:34.168Z,51.17
2019-03-25T21:35:02.659Z,50.59
2019-03-25T21:37:31.169Z,50.41
2019-03-25T21:39:59.533Z,50.50
2019-03-25T21:42:29.277Z,50.76
2019-03-25T21:44:57.802Z,50.82
2019-03-25T21:47:26.203Z,50.94
2019-03-25T21:49:54.590Z,50.92
2019-03-25T21:52:23.008Z,51.07
2019-03-25T21:54:51.444Z,51.03
2019-03-25T21:57:19.808Z,51.16
2019-03-25T21:59:48.145Z,51.04
2019-03-25T22:02:16.531Z,51.20
2019-03-25T22:04:44.918Z,51.22
2019-03-25T22:07:13.308Z,51.26
2019-03-25T22:09:41.708Z,51.09
2019-03-25T22:12:10.098Z,51.18
2019-03-25T22:14:38.505Z,51.14
2019-03-25T22:17:06.893Z,51.03
2019-03-25T22:19:35.283Z,51.11
2019-03-25T22:22:04.426Z,51.02
2019-03-25T22:24:32.806Z,51.17
2019-03-25T22:27:01.409Z,51.02
2019-03-25T22:29:29.804Z,51.12
2019-03-25T22:31:58.176Z,50.92
2019-03-25T22:34:26.584Z,50.99
2019-03-25T22:36:54.960Z,50.96
2019-03-25T22:39:23.344Z,50.95
2019-03-25T22:41:51.725Z,51.01
2019-03-25T22:44:20.119Z,50.99
2019-03-25T22:46:48.493Z,51.08
2019-03-25T22:49:16.883Z,51.15
2019-03-25T22:51:45.264Z,51.01
2019-03-25T22:54:13.666Z,51.00
2019-03-25T22:56:42.044Z,50.77
2019-03-25T22:59:10.435Z,51.02
2019-03-25T23:01:39.063Z,50.92
2019-03-25T23:04:07.468Z,50.90
2019-03-25T23:06:35.879Z,50.94
2019-03-25T23:09:07.585Z,50.84
2019-03-25T23:11:36.208Z,50.94
2019-03-25T23:14:04.945Z,50.91
2019-03-25T23:16:33.349Z,50.83
2019-03-25T23:19:01.738Z,50.71
2019-03-25T23:21:30.130Z,51.23
2019-03-25T23:23:58.530Z,50.92
2019-03-25T23:26:26.921Z,50.68
2019-03-25T23:28:55.307Z,50.65
2019-03-25T23:31:23.692Z,50.57
2019-03-25T23:33:52.776Z,50.57
2019-03-25T23:36:21.156Z,50.58
2019-03-25T23:38:49.525Z,50.70
2019-03-25T23:41:17.935Z,50.52
2019-03-25T23:43:46.324Z,50.53
2019-03-25T23:46:14.724Z,50.60
2019-03-25T23:48:43.133Z,50.61
2019-03-25T23:51:11.535Z,50.59
2019-03-25T23:53:39.919Z,50.57
2019-03-25T23:56:08.305Z,50.51
2019-03-25T23:58:36.679Z,50.54
